Overview Statistics Trail Chart Weather Telemetry Raw packets
 

This is the latest recevied weather packets stored in our database for station/object SP3ZBZ-13. If no packets are shown the sender has not sent any weather packets the latest 10 day(s).

<< 29 30 31 32 33 34 35 >>
Time Temp. Humidity Pressure Rain* Wind** Luminosity Snow
1787920124 25° C 43% 1008.6 hPa - - 198 W/m² -
1787919223 24.44° C 43% 1008.6 hPa - - 456 W/m² -
1787918322 25° C 43% 1009.1 hPa - - 344 W/m² -
1787917422 24.44° C 43% 1009.5 hPa - - 560 W/m² -
1787916520 24.44° C 44% 1009.5 hPa - - 545 W/m² -
1787915619 23.89° C 44% 1009.7 hPa - - 494 W/m² -
1787914718 23.89° C 44% 1009.8 hPa - - 372 W/m² -
1787913818 23.89° C 44% 1010.1 hPa - - 416 W/m² -
1787912916 23.33° C 45% 1010.2 hPa - - 322 W/m² -
1787912016 22.78° C 45% 1010 hPa - - 370 W/m² -
1787911115 22.78° C 47% 1010.4 hPa - - 253 W/m² -
1787910214 22.78° C 46% 1010.5 hPa - - 272 W/m² -
1787909313 22.22° C 48% 1010.7 hPa - - 532 W/m² -
1787908411 22.22° C 48% 1011.3 hPa - - 237 W/m² -
1787907510 21.11° C 51% 1011.8 hPa - - 331 W/m² -
1787906610 20.56° C 52% 1011.8 hPa - - 254 W/m² -
1787905709 20.56° C 53% 1012.1 hPa - - 238 W/m² -
1787904808 20.56° C 53% 1012.1 hPa - - 273 W/m² -
1787903907 20° C 55% 1012.4 hPa - - 246 W/m² -
1787903006 19.44° C 56% 1012.5 hPa - - 208 W/m² -
1787902105 19.44° C 57% 1012.5 hPa - - 254 W/m² -
1787901204 18.33° C 60% 1012.6 hPa - - 246 W/m² -
1787900303 17.78° C 60% 1012.5 hPa - - 204 W/m² -
1787899403 17.78° C 61% 1012.9 hPa - - 236 W/m² -
1787898501 16.67° C 65% 1013.2 hPa - - 101 W/m² -

* Rain since midnight (hover to see other rain measurements)
** Current wind speed in m/s (hover to see current wind gust speed)